Time;durP1;ratioP1;P1;durP2;ratioP2;P2;SDS_P1;SDS_P2;PMS_P1;PMS_P2;Temp;Humidity;BMP_temperature;BMP_pressure;BME280_temperature;BME280_humidity;BME280_pressure;Samples;Min_cycle;Max_cycle;Signal;HPM_P1;HPM_P2
2023/10/11 00:02:30;;;;;;;15.70;7.30;;;18.90;92.40;;;;;;4264910;27;20045;-59
2023/10/11 00:04:32;;;;;;;12.88;6.63;;;18.80;92.30;;;;;;4264536;27;20051;-59
2023/10/11 00:06:35;;;;;;;27.15;8.18;;;18.90;92.50;;;;;;4263837;27;20072;-60
2023/10/11 00:08:40;;;;;;;12.73;7.05;;;18.80;92.20;;;;;;4264360;27;20126;-60
2023/10/11 00:10:47;;;;;;;16.73;8.27;;;18.80;92.40;;;;;;4264326;27;20047;-56
2023/10/11 00:12:58;;;;;;;16.38;8.13;;;18.80;92.70;;;;;;4246457;27;20046;-57
2023/10/11 00:15:02;;;;;;;20.00;8.80;;;18.80;92.70;;;;;;4264544;27;20388;-55
2023/10/11 00:17:04;;;;;;;17.30;8.20;;;18.70;92.60;;;;;;4259483;27;20096;-56
2023/10/11 00:19:09;;;;;;;14.82;7.63;;;18.80;92.90;;;;;;4250565;27;20543;-55
2023/10/11 00:21:15;;;;;;;16.58;7.40;;;18.80;93.00;;;;;;4264437;27;20126;-56
2023/10/11 00:23:21;;;;;;;19.75;8.85;;;18.70;93.10;;;;;;4264293;27;20049;-55
2023/10/11 00:25:23;;;;;;;19.33;8.93;;;18.70;92.90;;;;;;4264048;27;20081;-57
2023/10/11 00:27:28;;;;;;;18.15;8.93;;;18.70;93.00;;;;;;4264284;27;20065;-58
2023/10/11 00:29:30;;;;;;;23.45;10.32;;;18.70;93.20;;;;;;4264123;27;20121;-58
2023/10/11 00:31:35;;;;;;;18.42;9.80;;;18.70;92.80;;;;;;4263824;27;20038;-57
2023/10/11 00:33:37;;;;;;;19.23;8.77;;;18.70;92.80;;;;;;4264239;27;20076;-58
2023/10/11 00:35:47;;;;;;;12.45;7.88;;;18.70;92.90;;;;;;4263503;27;20408;-56
2023/10/11 00:37:51;;;;;;;13.77;7.45;;;18.70;93.20;;;;;;4254904;27;20043;-55
2023/10/11 00:39:54;;;;;;;17.10;8.57;;;18.70;93.30;;;;;;4232676;28;20043;-56
2023/10/11 00:41:56;;;;;;;16.02;7.78;;;18.70;92.80;;;;;;4245820;27;20492;-55
2023/10/11 00:43:58;;;;;;;19.13;7.28;;;18.80;92.70;;;;;;4245959;28;20043;-55
2023/10/11 00:46:01;;;;;;;16.25;7.20;;;18.80;93.00;;;;;;4264528;27;20039;-55
2023/10/11 00:48:06;;;;;;;15.55;8.13;;;18.70;93.00;;;;;;4264515;27;20389;-58
2023/10/11 00:50:14;;;;;;;15.98;8.13;;;18.70;93.00;;;;;;4263726;27;20038;-60
2023/10/11 00:52:16;;;;;;;15.13;7.57;;;18.70;92.90;;;;;;4263900;27;20117;-56
2023/10/11 00:54:21;;;;;;;26.75;9.45;;;18.70;92.40;;;;;;4264028;27;20054;-54
2023/10/11 00:56:31;;;;;;;21.02;8.48;;;18.70;92.50;;;;;;4263926;27;20392;-55
2023/10/11 00:58:33;;;;;;;15.32;8.07;;;18.70;92.60;;;;;;4264250;27;20057;-58
2023/10/11 01:00:36;;;;;;;21.33;9.38;;;18.70;93.10;;;;;;4263876;27;20043;-58
2023/10/11 01:02:38;;;;;;;13.18;7.78;;;18.60;93.20;;;;;;4264090;27;20110;-57
2023/10/11 01:04:46;;;;;;;21.25;7.97;;;18.60;92.90;;;;;;4263685;27;20153;-55
2023/10/11 01:06:48;;;;;;;16.05;8.98;;;18.60;93.10;;;;;;4265146;27;20050;-57
2023/10/11 01:08:52;;;;;;;16.83;7.63;;;18.50;93.00;;;;;;4267466;27;20049;-59
2023/10/11 01:10:54;;;;;;;15.98;7.93;;;18.50;93.30;;;;;;4266952;27;20039;-60
2023/10/11 01:12:57;;;;;;;21.30;7.63;;;18.50;93.30;;;;;;4267059;27;20053;-59
2023/10/11 01:14:59;;;;;;;18.77;7.90;;;18.50;93.30;;;;;;4267495;27;20379;-58
2023/10/11 01:17:02;;;;;;;16.38;8.18;;;18.40;93.20;;;;;;4262472;27;20038;-58
2023/10/11 01:19:10;;;;;;;13.70;7.70;;;18.40;93.30;;;;;;4261965;27;20053;-55
2023/10/11 01:21:14;;;;;;;17.48;7.57;;;18.40;93.30;;;;;;4266962;27;20049;-55
2023/10/11 01:23:16;;;;;;;18.50;8.48;;;18.40;93.30;;;;;;4266907;27;20035;-56
2023/10/11 01:25:18;;;;;;;12.52;7.40;;;18.30;93.20;;;;;;4267268;27;20412;-55
2023/10/11 01:27:22;;;;;;;16.83;7.82;;;18.40;93.50;;;;;;4266924;27;20125;-56
2023/10/11 01:29:24;;;;;;;14.30;7.57;;;18.30;93.30;;;;;;4267099;27;20046;-59
2023/10/11 01:31:32;;;;;;;15.93;8.15;;;18.30;93.50;;;;;;4266828;27;20046;-58
2023/10/11 01:33:36;;;;;;;11.85;7.28;;;18.30;93.40;;;;;;4266502;27;20125;-58
2023/10/11 01:35:39;;;;;;;18.38;7.55;;;18.30;93.60;;;;;;4266941;27;20043;-58
2023/10/11 01:37:43;;;;;;;15.10;7.38;;;18.20;93.50;;;;;;4266566;27;20121;-58
2023/10/11 01:39:46;;;;;;;17.60;7.63;;;18.20;93.50;;;;;;4266866;27;20047;-59
2023/10/11 01:41:49;;;;;;;13.60;7.25;;;18.20;93.50;;;;;;4266923;27;20137;-56
2023/10/11 01:43:51;;;;;;;13.05;7.05;;;18.10;93.50;;;;;;4267259;27;20059;-58
2023/10/11 01:45:53;;;;;;;18.05;8.93;;;18.20;93.80;;;;;;4267257;27;20042;-56
2023/10/11 01:47:58;;;;;;;15.85;7.57;;;18.10;93.90;;;;;;4266565;27;20035;-56
2023/10/11 01:50:00;;;;;;;;;;;18.10;94.00;;;;;;4267250;27;20552;-58
2023/10/11 01:52:06;;;;;;;13.68;8.05;;;18.00;94.50;;;;;;4266391;27;19919;-58
2023/10/11 01:54:10;;;;;;;14.85;8.32;;;17.90;94.10;;;;;;4263450;27;20061;-57
2023/10/11 01:56:13;;;;;;;19.50;8.88;;;17.90;94.30;;;;;;4248188;27;20074;-58
2023/10/11 01:58:15;;;;;;;13.63;7.18;;;17.90;94.10;;;;;;4266414;27;20045;-57
2023/10/11 02:00:24;;;;;;;13.73;6.82;;;17.90;94.50;;;;;;4266446;27;20046;-58
2023/10/11 02:02:32;;;;;;;19.52;9.02;;;17.90;94.40;;;;;;4265808;27;20039;-58
2023/10/11 02:04:35;;;;;;;;;;;17.80;94.40;;;;;;4267275;27;20043;-58
2023/10/11 02:06:39;;;;;;;14.32;8.68;;;17.80;94.70;;;;;;4249438;27;20006;-58
2023/10/11 02:08:41;;;;;;;15.40;8.35;;;17.80;94.60;;;;;;4260754;27;20464;-58
2023/10/11 02:10:45;;;;;;;20.83;8.27;;;17.80;94.70;;;;;;4247945;27;20436;-58
2023/10/11 02:12:47;;;;;;;20.30;8.82;;;17.80;94.60;;;;;;4247702;27;20070;-57
2023/10/11 02:14:50;;;;;;;13.73;7.45;;;17.80;94.80;;;;;;4247949;27;20050;-55
2023/10/11 02:16:53;;;;;;;16.17;8.15;;;17.70;94.90;;;;;;4266073;27;20110;-55
2023/10/11 02:18:58;;;;;;;15.00;8.00;;;17.70;94.90;;;;;;4264660;27;20476;-57
2023/10/11 02:21:06;;;;;;;15.18;8.18;;;17.70;95.00;;;;;;4266447;27;20046;-57
2023/10/11 02:23:08;;;;;;;18.60;8.93;;;17.70;95.10;;;;;;4247921;27;20164;-56
2023/10/11 02:25:15;;;;;;;18.48;8.07;;;17.70;95.20;;;;;;4266497;27;20110;-56
2023/10/11 02:27:21;;;;;;;21.63;8.75;;;17.70;95.20;;;;;;4266224;27;20047;-58
2023/10/11 02:29:24;;;;;;;17.95;8.45;;;17.70;95.30;;;;;;4266125;27;20049;-57
2023/10/11 02:31:30;;;;;;;19.63;7.85;;;17.60;95.30;;;;;;4265774;27;20047;-57
2023/10/11 02:33:34;;;;;;;17.88;8.90;;;17.60;95.40;;;;;;4265901;27;20050;-57
2023/10/11 02:35:51;;;;;;;16.80;9.05;;;17.60;95.50;;;;;;4266374;27;20059;-58
2023/10/11 02:37:56;;;;;;;16.67;8.43;;;17.60;95.50;;;;;;4266058;27;20381;-57
2023/10/11 02:39:59;;;;;;;18.15;8.55;;;17.60;95.70;;;;;;4266031;27;20080;-55
2023/10/11 02:42:01;;;;;;;20.45;9.18;;;17.50;95.80;;;;;;4265757;27;20498;-57
2023/10/11 02:44:05;;;;;;;16.00;8.93;;;17.50;95.80;;;;;;4265668;27;20070;-57
2023/10/11 02:46:11;;;;;;;13.05;8.40;;;17.50;95.90;;;;;;4265414;27;20459;-57
2023/10/11 02:48:19;;;;;;;15.80;8.60;;;17.50;95.80;;;;;;4265906;27;20049;-58
2023/10/11 02:50:22;;;;;;;15.65;8.27;;;17.50;95.90;;;;;;4265751;27;20046;-58
2023/10/11 02:52:35;;;;;;;17.10;8.52;;;17.50;96.20;;;;;;4265491;27;20062;-58
2023/10/11 02:54:40;;;;;;;20.33;8.63;;;17.50;95.90;;;;;;4265135;27;20206;-58
2023/10/11 02:56:47;;;;;;;18.02;8.63;;;17.50;95.90;;;;;;4265654;27;20137;-58
2023/10/11 02:58:49;;;;;;;18.60;9.00;;;17.50;96.00;;;;;;4265918;27;20054;-58
2023/10/11 03:00:58;;;;;;;18.85;9.85;;;17.50;96.10;;;;;;4265227;27;20046;-56
2023/10/11 03:03:21;;;;;;;16.55;7.65;;;17.50;96.10;;;;;;4248350;27;20043;-54
2023/10/11 03:05:27;;;;;;;17.40;8.38;;;17.50;96.00;;;;;;4257774;27;20126;-55
2023/10/11 03:07:33;;;;;;;16.05;8.18;;;17.50;96.00;;;;;;4265841;27;20480;-55
2023/10/11 03:09:36;;;;;;;20.13;8.30;;;17.50;96.00;;;;;;4265388;27;20073;-56
2023/10/11 03:11:45;;;;;;;16.52;7.75;;;17.50;95.90;;;;;;4261789;27;20074;-56
2023/10/11 03:13:48;;;;;;;11.80;7.65;;;17.60;96.00;;;;;;4264852;27;20046;-55
2023/10/11 03:15:57;;;;;;;14.73;8.38;;;17.50;96.10;;;;;;4265412;27;20038;-59
2023/10/11 03:18:06;;;;;;;18.92;8.23;;;17.50;95.80;;;;;;4264433;27;20068;-58
2023/10/11 03:20:31;;;;;;;12.68;7.03;;;17.50;95.70;;;;;;4265277;27;20485;-59
2023/10/11 03:22:31;;;;;;;14.25;8.35;;;17.50;95.70;;;;;;4254150;27;20452;-58
2023/10/11 03:24:33;;;;;;;18.13;9.07;;;17.50;95.90;;;;;;4265229;27;20149;-56
2023/10/11 03:26:38;;;;;;;17.33;8.73;;;17.50;95.70;;;;;;4265079;27;20043;-58
2023/10/11 03:28:41;;;;;;;17.40;8.73;;;17.40;95.80;;;;;;4264776;27;20506;-55
2023/10/11 03:30:43;;;;;;;17.80;7.85;;;17.40;95.90;;;;;;4264524;27;20041;-56
2023/10/11 03:32:47;;;;;;;14.85;8.20;;;17.40;95.80;;;;;;4264915;27;20130;-63
2023/10/11 03:34:49;;;;;;;18.05;8.02;;;17.40;95.80;;;;;;4264815;27;20047;-59
2023/10/11 03:36:51;;;;;;;22.45;8.88;;;17.40;96.00;;;;;;4263927;27;20043;-58
2023/10/11 03:38:54;;;;;;;15.65;8.13;;;17.40;95.90;;;;;;4261339;27;20119;-58
2023/10/11 03:41:16;;;;;;;20.30;8.02;;;17.30;96.00;;;;;;4264698;27;20398;-56
2023/10/11 03:43:18;;;;;;;15.82;8.32;;;17.30;96.00;;;;;;4254572;27;20460;-56
2023/10/11 03:45:27;;;;;;;15.75;6.97;;;17.30;95.90;;;;;;4265026;27;20488;-54
2023/10/11 03:47:31;;;;;;;13.18;7.43;;;17.30;95.90;;;;;;4264726;27;20045;-56
2023/10/11 03:51:46;;;;;;;13.27;6.97;;;17.30;95.80;;;;;;4264367;27;20502;-58
2023/10/11 03:53:54;;;;;;;18.73;7.90;;;17.30;95.80;;;;;;4264757;27;20146;-58
2023/10/11 03:55:57;;;;;;;14.85;7.50;;;17.30;95.70;;;;;;4246349;27;20404;-57
2023/10/11 03:58:04;;;;;;;18.67;7.53;;;17.30;95.70;;;;;;4263282;27;20053;-55
2023/10/11 04:02:25;;;;;;;17.92;7.63;;;17.30;95.60;;;;;;4264361;27;20465;-56
2023/10/11 04:04:28;;;;;;;17.65;7.65;;;17.30;95.70;;;;;;4264685;27;20046;-56
2023/10/11 04:06:34;;;;;;;16.35;7.70;;;17.30;95.60;;;;;;4250108;27;20084;-55
2023/10/11 04:08:39;;;;;;;13.32;7.28;;;17.30;95.60;;;;;;4261489;27;20046;-60
2023/10/11 04:10:49;;;;;;;18.65;8.02;;;17.30;95.80;;;;;;4264454;27;20555;-59
2023/10/11 04:12:53;;;;;;;16.38;7.68;;;17.20;96.10;;;;;;4263894;27;20427;-60
2023/10/11 04:15:24;;;;;;;18.00;7.55;;;17.20;95.90;;;;;;4246602;27;20451;-60
2023/10/11 04:19:24;;;;;;;12.43;7.05;;;17.10;95.80;;;;;;4264253;27;20046;-55
2023/10/11 04:23:35;;;;;;;11.00;6.22;;;17.10;95.80;;;;;;4264409;27;20397;-58
2023/10/11 04:25:37;;;;;;;16.17;7.93;;;17.20;95.80;;;;;;4264418;27;20049;-58
2023/10/11 04:29:42;;;;;;;14.57;6.90;;;17.30;95.50;;;;;;4264245;27;20334;-57
2023/10/11 04:34:23;;;;;;;17.83;7.03;;;17.40;95.30;;;;;;4177531;28;20052;-57
2023/10/11 04:36:28;;;;;;;15.60;7.15;;;17.40;95.30;;;;;;4178075;28;20084;-57
2023/10/11 04:38:33;;;;;;;14.13;6.85;;;17.40;95.50;;;;;;4177560;28;20532;-58
2023/10/11 04:42:39;;;;;;;16.70;7.40;;;17.40;95.10;;;;;;4180579;28;20079;-57
2023/10/11 04:44:47;;;;;;;17.55;6.53;;;17.40;95.10;;;;;;4180888;28;20463;-55
2023/10/11 04:46:57;;;;;;;15.00;6.82;;;17.30;95.10;;;;;;4181912;28;20053;-60
2023/10/11 04:49:18;;;;;;;15.00;6.97;;;17.30;95.40;;;;;;4181855;28;20040;-58
2023/10/11 04:53:32;;;;;;;12.73;6.20;;;17.40;94.80;;;;;;4181054;28;20072;-57
2023/10/11 04:55:37;;;;;;;12.32;6.43;;;17.50;94.80;;;;;;4170119;28;20053;-57
2023/10/11 05:00:17;;;;;;;14.65;6.88;;;17.50;94.60;;;;;;4168515;28;20060;-58
2023/10/11 05:02:32;;;;;;;16.50;7.15;;;17.50;94.70;;;;;;4181252;28;20052;-57
2023/10/11 05:04:41;;;;;;;16.00;7.15;;;17.50;94.40;;;;;;4180803;28;20121;-58
2023/10/11 05:06:45;;;;;;;11.50;6.70;;;17.60;94.50;;;;;;4177309;28;20478;-56
2023/10/11 05:08:51;;;;;;;20.13;7.45;;;17.50;94.60;;;;;;4181516;28;20490;-57
2023/10/11 05:10:55;;;;;;;18.55;7.47;;;17.50;94.60;;;;;;4226808;27;20052;-57
2023/10/11 05:13:11;;;;;;;14.25;6.28;;;17.50;94.30;;;;;;4248927;27;20051;-57
2023/10/11 05:15:15;;;;;;;18.40;7.00;;;17.50;94.50;;;;;;4266964;27;20054;-56
2023/10/11 05:19:27;;;;;;;15.20;6.57;;;17.40;94.60;;;;;;4255776;27;20039;-57
2023/10/11 05:21:38;;;;;;;21.13;6.87;;;17.40;94.90;;;;;;4267139;27;20126;-57
2023/10/11 05:24:03;;;;;;;14.05;6.95;;;17.40;94.70;;;;;;4267160;27;20492;-57
2023/10/11 05:26:37;;;;;;;18.58;6.97;;;17.40;94.60;;;;;;4266854;27;20043;-58
2023/10/11 05:28:38;;;;;;;21.77;8.57;;;17.40;94.40;;;;;;4267043;27;20390;-57
2023/10/11 05:30:44;;;;;;;19.08;8.13;;;17.30;94.30;;;;;;4267006;27;20627;-55
2023/10/11 05:32:50;;;;;;;13.90;6.75;;;17.30;94.40;;;;;;4266918;27;20436;-55
2023/10/11 05:35:12;;;;;;;15.43;6.70;;;17.30;94.70;;;;;;4266826;27;20323;-56
2023/10/11 05:51:43;;;;;;;14.90;7.13;;;17.00;95.00;;;;;;4196477;28;20070;-58
2023/10/11 05:53:46;;;;;;;18.95;7.35;;;16.90;94.90;;;;;;4196043;28;20478;-58
2023/10/11 05:55:51;;;;;;;10.40;6.35;;;16.90;95.10;;;;;;4196593;28;20040;-57
2023/10/11 05:57:55;;;;;;;17.05;6.85;;;16.90;95.30;;;;;;4196687;28;20050;-57
2023/10/11 06:00:04;;;;;;;15.38;7.05;;;16.90;95.30;;;;;;4197027;28;20072;-58
2023/10/11 06:02:13;;;;;;;17.02;7.45;;;16.80;95.30;;;;;;4196350;28;20086;-57
2023/10/11 06:04:16;;;;;;;14.48;7.05;;;16.90;95.60;;;;;;4180206;28;20048;-58
2023/10/11 06:06:32;;;;;;;19.70;7.13;;;16.90;95.30;;;;;;4193696;28;20065;-58
2023/10/11 06:08:38;;;;;;;13.75;7.53;;;16.90;95.30;;;;;;4196221;28;20045;-58
2023/10/11 06:10:43;;;;;;;21.42;6.95;;;16.90;95.20;;;;;;4220196;27;20054;-58
2023/10/11 06:12:45;;;;;;;;;;;16.90;95.20;;;;;;4266865;27;20131;-58
2023/10/11 06:14:50;;;;;;;26.63;8.07;;;16.90;95.10;;;;;;4266602;27;20353;-57
2023/10/11 06:16:59;;;;;;;20.27;7.32;;;16.90;95.20;;;;;;4265892;27;20057;-58
2023/10/11 06:19:16;;;;;;;19.98;6.70;;;16.90;95.30;;;;;;4266299;27;20085;-58
2023/10/11 06:21:24;;;;;;;21.83;8.00;;;17.00;95.10;;;;;;4266048;27;20050;-58
2023/10/11 06:23:26;;;;;;;15.55;6.93;;;17.00;94.80;;;;;;4247422;27;20139;-58
2023/10/11 06:25:49;;;;;;;17.98;7.15;;;17.00;94.90;;;;;;4266244;27;20126;-58
2023/10/11 06:30:06;;;;;;;18.40;7.43;;;17.00;95.10;;;;;;4249155;27;20039;-58
2023/10/11 06:32:11;;;;;;;13.65;7.28;;;17.00;95.10;;;;;;4257222;27;20613;-58
2023/10/11 06:36:29;;;;;;;15.73;7.00;;;17.00;95.20;;;;;;4266223;27;20133;-55
2023/10/11 06:38:41;;;;;;;17.20;6.05;;;17.10;95.00;;;;;;4266044;27;20496;-54
2023/10/11 06:40:54;;;;;;;18.75;6.82;;;17.10;94.80;;;;;;4266558;27;20038;-58
2023/10/11 06:42:57;;;;;;;18.08;7.00;;;17.30;94.70;;;;;;4266338;27;20502;-55
2023/10/11 06:45:03;;;;;;;22.42;8.18;;;17.20;94.60;;;;;;4266644;27;20046;-55
2023/10/11 06:47:05;;;;;;;13.20;5.82;;;17.30;94.50;;;;;;4266107;27;20186;-56
2023/10/11 06:49:07;;;;;;;17.83;6.28;;;17.30;94.60;;;;;;4266183;27;20050;-55
2023/10/11 06:51:13;;;;;;;16.00;6.70;;;17.40;94.40;;;;;;4265523;27;20407;-56
2023/10/11 06:53:17;;;;;;;11.68;5.90;;;17.40;94.50;;;;;;4265571;27;20038;-55
2023/10/11 06:55:22;;;;;;;24.30;6.95;;;17.30;94.60;;;;;;4265821;27;20050;-55
2023/10/11 06:57:25;;;;;;;27.15;7.45;;;17.40;94.20;;;;;;4265773;27;20398;-55
2023/10/11 06:59:28;;;;;;;15.23;6.22;;;17.50;94.00;;;;;;4247233;27;20051;-57
2023/10/11 07:01:35;;;;;;;14.15;6.55;;;17.50;93.90;;;;;;4265523;27;20407;-58
2023/10/11 07:03:39;;;;;;;18.33;6.53;;;17.50;93.70;;;;;;4264930;27;20039;-58
2023/10/11 07:05:46;;;;;;;20.52;6.15;;;17.60;93.50;;;;;;4246345;27;20095;-54
2023/10/11 07:07:48;;;;;;;18.77;6.93;;;17.60;93.60;;;;;;4265324;27;20046;-55
2023/10/11 07:09:56;;;;;;;19.30;6.57;;;17.70;92.70;;;;;;4265409;27;20060;-58
2023/10/11 07:14:25;;;;;;;29.45;7.30;;;17.80;92.80;;;;;;4265103;27;20411;-58
2023/10/11 07:16:29;;;;;;;19.40;6.80;;;17.90;92.40;;;;;;4264999;27;20465;-58
2023/10/11 07:18:39;;;;;;;22.50;7.00;;;18.00;92.40;;;;;;4254836;27;20077;-58
2023/10/11 07:20:48;;;;;;;16.00;6.35;;;18.00;92.20;;;;;;4264942;27;20074;-58
2023/10/11 07:22:50;;;;;;;27.60;7.97;;;18.10;92.30;;;;;;4265821;27;20045;-55
2023/10/11 07:24:55;;;;;;;25.33;7.60;;;18.20;91.80;;;;;;4264780;27;20060;-56
2023/10/11 07:26:58;;;;;;;27.40;7.68;;;18.20;91.70;;;;;;4265746;27;20046;-57
2023/10/11 07:29:02;;;;;;;18.17;6.88;;;18.30;91.70;;;;;;4264923;27;20782;-58
2023/10/11 07:31:04;;;;;;;18.05;7.28;;;18.40;91.50;;;;;;4264985;27;20045;-58
2023/10/11 07:33:06;;;;;;;19.15;7.40;;;18.50;91.30;;;;;;4264943;27;20042;-59
2023/10/11 07:35:19;;;;;;;33.28;7.63;;;18.60;91.00;;;;;;4245939;27;20047;-58
2023/10/11 07:37:26;;;;;;;14.02;7.03;;;18.70;91.10;;;;;;4252717;27;20059;-58
2023/10/11 07:39:33;;;;;;;18.67;7.13;;;18.70;90.90;;;;;;4264651;27;20121;-58
2023/10/11 07:41:42;;;;;;;18.98;6.90;;;18.70;90.80;;;;;;4264988;27;20054;-56
2023/10/11 07:43:47;;;;;;;24.30;7.43;;;18.80;90.70;;;;;;4264801;27;20160;-56
2023/10/11 07:45:49;;;;;;;25.13;7.63;;;18.90;90.60;;;;;;4249868;27;20051;-58
2023/10/11 07:47:52;;;;;;;19.38;6.60;;;18.90;90.30;;;;;;4265182;27;20118;-56
2023/10/11 07:49:56;;;;;;;20.65;8.25;;;19.00;90.50;;;;;;4264237;27;20039;-58
2023/10/11 07:51:59;;;;;;;26.92;8.27;;;19.00;90.50;;;;;;4264246;27;20047;-57
2023/10/11 07:54:06;;;;;;;21.50;7.45;;;19.10;90.30;;;;;;4264259;27;20119;-61
2023/10/11 07:56:09;;;;;;;27.13;7.72;;;19.10;90.20;;;;;;4225425;28;20484;-60
2023/10/11 07:58:12;;;;;;;22.40;7.60;;;19.20;90.10;;;;;;4246248;27;20085;-57
2023/10/11 08:00:18;;;;;;;23.08;7.00;;;19.20;90.20;;;;;;4264446;27;20062;-62
2023/10/11 08:02:27;;;;;;;18.13;6.70;;;19.20;90.40;;;;;;4264930;27;20079;-59
2023/10/11 08:04:29;;;;;;;28.27;8.35;;;19.20;90.50;;;;;;4264318;27;20042;-57
2023/10/11 08:06:32;;;;;;;20.55;7.25;;;19.20;90.60;;;;;;4263750;27;20073;-57
2023/10/11 08:08:37;;;;;;;27.83;8.05;;;19.20;90.50;;;;;;4264624;27;20039;-57
2023/10/11 08:10:44;;;;;;;23.55;7.32;;;19.20;89.80;;;;;;4263548;27;20065;-58
2023/10/11 08:12:46;;;;;;;25.42;7.55;;;19.30;90.30;;;;;;4240177;27;20090;-58
2023/10/11 08:14:56;;;;;;;18.77;6.30;;;19.40;90.50;;;;;;4261219;27;20042;-58
2023/10/11 08:16:59;;;;;;;27.02;7.32;;;19.40;90.20;;;;;;4263424;27;20404;-58
2023/10/11 08:19:04;;;;;;;21.08;6.30;;;19.40;90.30;;;;;;4263794;27;20053;-55
2023/10/11 08:21:06;;;;;;;;;;;19.40;90.00;;;;;;4263535;27;20821;-56
2023/10/11 08:23:08;;;;;;;19.33;6.35;;;19.40;89.70;;;;;;4262344;27;20006;-58
2023/10/11 08:25:12;;;;;;;19.25;6.47;;;19.50;90.00;;;;;;4263925;27;20122;-54
2023/10/11 08:27:27;;;;;;;31.17;7.15;;;19.50;88.20;;;;;;4263385;27;20113;-58
2023/10/11 08:29:33;;;;;;;21.48;6.85;;;19.50;88.50;;;;;;4263556;27;20073;-57
2023/10/11 08:31:35;;;;;;;27.02;7.28;;;19.50;87.30;;;;;;4260880;27;20091;-58
2023/10/11 08:33:37;;;;;;;39.05;6.97;;;19.60;88.10;;;;;;4263852;27;20106;-57
2023/10/11 08:35:46;;;;;;;26.85;7.10;;;19.60;88.40;;;;;;4263675;27;20369;-59
2023/10/11 08:37:52;;;;;;;27.98;7.15;;;19.70;88.10;;;;;;4264677;27;20537;-58
2023/10/11 08:39:57;;;;;;;20.38;6.57;;;19.70;87.90;;;;;;4264372;27;20049;-56
2023/10/11 08:42:06;;;;;;;23.45;7.18;;;19.80;88.00;;;;;;4263322;27;20034;-55
2023/10/11 08:44:15;;;;;;;24.92;6.95;;;19.80;87.20;;;;;;4263201;27;20083;-56
2023/10/11 08:46:18;;;;;;;17.60;6.50;;;19.80;86.50;;;;;;4265376;27;20058;-56
2023/10/11 08:48:24;;;;;;;18.70;6.72;;;19.80;86.10;;;;;;4265733;27;20095;-56
2023/10/11 08:50:31;;;;;;;25.05;6.07;;;19.90;85.50;;;;;;4271478;27;20038;-56
2023/10/11 08:52:33;;;;;;;37.05;6.95;;;20.00;85.80;;;;;;4263926;27;20055;-56
2023/10/11 08:54:36;;;;;;;17.05;5.68;;;20.00;85.20;;;;;;4262363;27;20074;-54
2023/10/11 08:56:39;;;;;;;33.53;6.63;;;20.00;85.50;;;;;;4250695;27;20047;-58
2023/10/11 08:58:44;;;;;;;22.48;6.60;;;20.10;84.70;;;;;;4262908;27;20035;-58
2023/10/11 09:00:47;;;;;;;18.25;6.13;;;20.10;84.20;;;;;;4263485;27;20053;-57
2023/10/11 09:02:52;;;;;;;27.85;6.70;;;20.20;85.50;;;;;;4261570;27;20074;-57
2023/10/11 09:04:56;;;;;;;25.45;6.07;;;20.20;84.20;;;;;;4260845;27;20369;-58
2023/10/11 09:06:58;;;;;;;23.65;6.38;;;20.20;84.20;;;;;;4251793;27;20051;-56
2023/10/11 09:09:03;;;;;;;25.23;8.35;;;20.30;83.90;;;;;;4263274;27;20522;-56
2023/10/11 09:11:11;;;;;;;19.90;6.80;;;20.30;84.00;;;;;;4262011;27;20043;-56
2023/10/11 09:13:25;;;;;;;25.23;6.25;;;20.30;82.10;;;;;;4262986;27;20444;-57
2023/10/11 09:15:40;;;;;;;19.80;7.40;;;20.40;81.50;;;;;;4263037;27;20047;-58
2023/10/11 09:17:48;;;;;;;30.63;5.72;;;20.40;80.50;;;;;;4244168;27;20118;-55
2023/10/11 09:19:53;;;;;;;26.08;6.38;;;20.50;80.40;;;;;;4263016;27;20047;-56
2023/10/11 09:22:01;;;;;;;22.55;6.22;;;20.50;80.30;;;;;;4262695;27;20069;-55
2023/10/11 09:24:23;;;;;;;23.15;6.03;;;20.60;79.70;;;;;;4259097;27;20110;-56
2023/10/11 09:26:37;;;;;;;19.38;5.25;;;20.70;78.40;;;;;;4263178;27;20047;-55
2023/10/11 09:28:47;;;;;;;12.68;5.00;;;20.70;78.00;;;;;;4265961;27;20043;-56
2023/10/11 09:31:03;;;;;;;22.92;6.55;;;20.80;78.00;;;;;;4266025;27;20421;-56
2023/10/11 09:33:16;;;;;;;21.10;4.78;;;20.80;76.90;;;;;;4265830;27;20487;-56
2023/10/11 09:35:26;;;;;;;17.05;5.13;;;20.80;76.50;;;;;;4266223;27;20095;-55
2023/10/11 09:37:33;;;;;;;19.00;5.18;;;20.90;77.10;;;;;;4260886;27;20051;-56
2023/10/11 09:39:36;;;;;;;25.55;5.35;;;20.90;76.50;;;;;;4262339;27;20047;-56
2023/10/11 09:41:44;;;;;;;19.55;5.22;;;21.00;77.10;;;;;;4266091;27;20129;-58
2023/10/11 09:43:46;;;;;;;13.23;4.70;;;21.00;77.30;;;;;;4265694;27;20091;-58
2023/10/11 09:45:53;;;;;;;15.57;5.28;;;21.00;77.50;;;;;;4265742;27;20081;-58
2023/10/11 09:47:58;;;;;;;28.00;6.50;;;21.10;77.60;;;;;;4265896;27;20043;-58
2023/10/11 09:50:00;;;;;;;18.25;5.88;;;21.10;77.80;;;;;;4265731;27;20046;-58
2023/10/11 09:52:07;;;;;;;16.95;5.00;;;21.20;77.50;;;;;;4265816;27;20058;-62
2023/10/11 09:54:12;;;;;;;15.80;5.63;;;21.20;78.00;;;;;;4265761;27;20039;-56
2023/10/11 09:56:30;;;;;;;18.63;5.38;;;21.30;78.30;;;;;;4265682;27;20042;-55
2023/10/11 09:58:41;;;;;;;16.65;5.30;;;21.30;78.30;;;;;;4265469;27;20299;-55
2023/10/11 10:00:50;;;;;;;14.60;5.72;;;21.40;78.30;;;;;;4254128;27;20047;-58
2023/10/11 10:02:54;;;;;;;15.07;4.72;;;21.40;78.30;;;;;;4265966;27;20133;-58
2023/10/11 10:05:04;;;;;;;18.95;5.13;;;21.50;78.40;;;;;;4262612;27;20049;-59
2023/10/11 10:07:12;;;;;;;18.33;5.28;;;21.50;78.50;;;;;;4263530;27;20097;-58
2023/10/11 10:09:23;;;;;;;26.23;5.93;;;21.50;78.80;;;;;;4265323;27;20038;-58
2023/10/11 10:12:05;;;;;;;17.42;4.70;;;21.60;78.80;;;;;;4247149;27;20050;-54
2023/10/11 10:14:23;;;;;;;15.98;4.75;;;21.70;79.60;;;;;;4264941;27;20046;-55
2023/10/11 10:16:59;;;;;;;16.08;5.10;;;21.70;79.00;;;;;;4255961;27;20571;-56
2023/10/11 10:19:25;;;;;;;23.13;5.15;;;21.80;78.80;;;;;;4250926;27;20049;-56
2023/10/11 10:22:08;;;;;;;16.98;5.95;;;21.80;78.90;;;;;;4258658;27;20538;-55
2023/10/11 10:24:31;;;;;;;13.73;5.00;;;21.90;79.00;;;;;;4250743;27;20408;-55
2023/10/11 10:26:33;;;;;;;13.38;4.82;;;22.00;78.80;;;;;;4235556;27;20111;-57
2023/10/11 10:28:51;;;;;;;11.63;5.55;;;22.00;79.20;;;;;;4256602;27;20051;-56
2023/10/11 10:31:09;;;;;;;15.65;5.00;;;22.10;78.80;;;;;;4261900;27;20132;-57
2023/10/11 10:33:23;;;;;;;13.48;5.75;;;22.10;79.20;;;;;;4262633;27;20051;-55
2023/10/11 10:35:36;;;;;;;13.75;4.72;;;22.20;79.30;;;;;;4256197;27;20316;-55
2023/10/11 10:37:56;;;;;;;27.08;6.55;;;22.20;79.40;;;;;;4259290;27;20050;-55
2023/10/11 10:40:18;;;;;;;13.38;4.78;;;22.20;79.00;;;;;;4251389;27;20480;-55
2023/10/11 10:42:24;;;;;;;20.58;5.20;;;22.30;79.60;;;;;;4262536;27;20117;-56
2023/10/11 10:44:29;;;;;;;16.05;5.05;;;22.30;79.60;;;;;;4265487;27;20097;-56
2023/10/11 10:46:33;;;;;;;14.40;5.13;;;22.30;79.70;;;;;;4265459;27;20054;-55
2023/10/11 10:48:44;;;;;;;16.42;5.10;;;22.40;79.70;;;;;;4265602;27;20095;-55
2023/10/11 10:50:50;;;;;;;24.92;4.43;;;22.40;79.30;;;;;;4265757;27;20437;-55
2023/10/11 10:52:56;;;;;;;17.42;4.95;;;22.40;78.70;;;;;;4265507;27;20050;-55
2023/10/11 10:55:03;;;;;;;17.25;4.93;;;22.40;79.00;;;;;;4265759;27;20130;-56
2023/10/11 10:57:06;;;;;;;17.08;4.93;;;22.50;79.10;;;;;;4264068;27;20092;-57
2023/10/11 10:59:20;;;;;;;15.75;4.47;;;22.50;78.60;;;;;;4255203;27;20076;-57
2023/10/11 11:01:28;;;;;;;14.32;5.28;;;22.50;79.10;;;;;;4264292;27;20090;-57
2023/10/11 11:03:32;;;;;;;19.23;4.70;;;22.60;79.50;;;;;;4262046;27;20109;-56
2023/10/11 11:05:39;;;;;;;22.80;5.88;;;22.60;79.10;;;;;;4265108;27;20035;-56
2023/10/11 11:07:47;;;;;;;20.02;4.82;;;22.60;79.10;;;;;;4264474;27;20046;-57
2023/10/11 11:09:54;;;;;;;13.55;4.95;;;22.60;79.30;;;;;;4265463;27;20077;-57
2023/10/11 11:12:14;;;;;;;16.60;4.57;;;22.60;79.10;;;;;;4265174;27;20066;-57
2023/10/11 11:14:20;;;;;;;28.17;5.95;;;22.70;79.30;;;;;;4265787;27;20153;-57
2023/10/11 11:16:31;;;;;;;19.15;4.93;;;22.80;79.50;;;;;;4262397;27;20046;-58
2023/10/11 11:18:34;;;;;;;18.95;4.72;;;22.80;79.20;;;;;;4256851;27;20042;-55
2023/10/11 11:20:40;;;;;;;15.68;5.28;;;22.80;79.10;;;;;;4266199;27;20144;-68
2023/10/11 11:22:46;;;;;;;25.40;4.72;;;22.90;79.10;;;;;;4245712;27;20073;-57
2023/10/11 11:24:52;;;;;;;22.98;6.78;;;22.80;79.20;;;;;;4247971;27;20070;-58
2023/10/11 11:26:56;;;;;;;30.52;6.28;;;22.90;79.40;;;;;;4255782;27;20043;-55
2023/10/11 11:29:17;;;;;;;34.47;8.45;;;22.90;79.40;;;;;;4257917;27;20126;-57
2023/10/11 11:33:29;;;;;;;13.98;4.55;;;22.80;80.30;;;;;;4261266;27;20076;-57
2023/10/11 11:35:43;;;;;;;18.88;4.78;;;22.90;80.00;;;;;;4256223;27;20051;-57
2023/10/11 11:38:02;;;;;;;18.50;5.57;;;23.00;80.20;;;;;;4241631;27;20047;-57
2023/10/11 11:42:33;;;;;;;35.22;6.75;;;23.10;79.90;;;;;;4264047;27;20403;-55